sensor_id;sensor_type;location;lat;lon;timestamp;P1;durP1;ratioP1;P2;durP2;ratioP2
6007;SDS011;3032;49.484;11.112;2022-08-19T00:00:32;44.80;;;38.00;;
6007;SDS011;3032;49.484;11.112;2022-08-19T00:02:57;54.63;;;43.67;;
6007;SDS011;3032;49.484;11.112;2022-08-19T00:05:23;43.37;;;35.70;;
6007;SDS011;3032;49.484;11.112;2022-08-19T00:07:49;40.50;;;35.50;;
6007;SDS011;3032;49.484;11.112;2022-08-19T00:10:15;39.25;;;35.05;;
6007;SDS011;3032;49.484;11.112;2022-08-19T00:12:42;45.17;;;40.22;;
6007;SDS011;3032;49.484;11.112;2022-08-19T00:15:09;51.27;;;40.80;;
6007;SDS011;3032;49.484;11.112;2022-08-19T00:17:40;62.88;;;45.92;;
6007;SDS011;3032;49.484;11.112;2022-08-19T00:20:07;45.50;;;37.97;;
6007;SDS011;3032;49.484;11.112;2022-08-19T00:22:35;43.13;;;36.90;;
6007;SDS011;3032;49.484;11.112;2022-08-19T00:25:02;45.95;;;35.80;;
6007;SDS011;3032;49.484;11.112;2022-08-19T00:27:28;39.38;;;34.13;;
6007;SDS011;3032;49.484;11.112;2022-08-19T00:29:53;62.17;;;45.23;;
6007;SDS011;3032;49.484;11.112;2022-08-19T00:32:19;63.27;;;46.90;;
6007;SDS011;3032;49.484;11.112;2022-08-19T00:34:45;41.67;;;35.10;;
6007;SDS011;3032;49.484;11.112;2022-08-19T00:37:11;46.00;;;38.20;;
6007;SDS011;3032;49.484;11.112;2022-08-19T00:39:37;43.67;;;35.75;;
6007;SDS011;3032;49.484;11.112;2022-08-19T00:42:03;39.07;;;33.97;;
6007;SDS011;3032;49.484;11.112;2022-08-19T00:44:31;42.05;;;36.17;;
6007;SDS011;3032;49.484;11.112;2022-08-19T00:46:57;39.73;;;34.83;;
6007;SDS011;3032;49.484;11.112;2022-08-19T00:52:34;36.25;;;32.33;;
6007;SDS011;3032;49.484;11.112;2022-08-19T00:55:05;54.45;;;43.00;;
6007;SDS011;3032;49.484;11.112;2022-08-19T00:57:36;45.38;;;37.22;;
6007;SDS011;3032;49.484;11.112;2022-08-19T01:00:09;32.83;;;29.20;;
6007;SDS011;3032;49.484;11.112;2022-08-19T01:02:38;36.92;;;32.92;;
6007;SDS011;3032;49.484;11.112;2022-08-19T01:05:06;45.20;;;35.25;;
6007;SDS011;3032;49.484;11.112;2022-08-19T01:07:35;58.97;;;40.47;;
6007;SDS011;3032;49.484;11.112;2022-08-19T01:10:02;45.55;;;37.03;;
6007;SDS011;3032;49.484;11.112;2022-08-19T01:12:28;44.80;;;36.60;;
6007;SDS011;3032;49.484;11.112;2022-08-19T01:14:55;39.90;;;33.33;;
6007;SDS011;3032;49.484;11.112;2022-08-19T01:17:21;42.80;;;34.75;;
6007;SDS011;3032;49.484;11.112;2022-08-19T01:19:47;40.00;;;35.10;;
6007;SDS011;3032;49.484;11.112;2022-08-19T01:24:48;43.22;;;37.03;;
6007;SDS011;3032;49.484;11.112;2022-08-19T01:27:14;39.63;;;34.45;;
6007;SDS011;3032;49.484;11.112;2022-08-19T01:29:41;47.03;;;36.80;;
6007;SDS011;3032;49.484;11.112;2022-08-19T01:32:10;43.78;;;37.13;;
6007;SDS011;3032;49.484;11.112;2022-08-19T01:34:39;42.92;;;35.50;;
6007;SDS011;3032;49.484;11.112;2022-08-19T01:37:07;44.00;;;37.58;;
6007;SDS011;3032;49.484;11.112;2022-08-19T01:39:36;47.20;;;37.92;;
6007;SDS011;3032;49.484;11.112;2022-08-19T01:42:04;44.60;;;38.58;;
6007;SDS011;3032;49.484;11.112;2022-08-19T01:44:32;43.22;;;36.70;;
6007;SDS011;3032;49.484;11.112;2022-08-19T01:46:57;46.93;;;37.70;;
6007;SDS011;3032;49.484;11.112;2022-08-19T01:49:23;44.30;;;36.80;;
6007;SDS011;3032;49.484;11.112;2022-08-19T01:51:51;43.42;;;35.42;;
6007;SDS011;3032;49.484;11.112;2022-08-19T01:54:19;38.95;;;33.80;;
6007;SDS011;3032;49.484;11.112;2022-08-19T01:56:45;44.55;;;35.72;;
6007;SDS011;3032;49.484;11.112;2022-08-19T01:59:12;39.80;;;34.20;;
6007;SDS011;3032;49.484;11.112;2022-08-19T02:01:41;37.97;;;33.50;;
6007;SDS011;3032;49.484;11.112;2022-08-19T02:04:07;43.43;;;34.63;;
6007;SDS011;3032;49.484;11.112;2022-08-19T02:06:32;40.93;;;35.33;;
6007;SDS011;3032;49.484;11.112;2022-08-19T02:08:59;46.67;;;38.95;;
6007;SDS011;3032;49.484;11.112;2022-08-19T02:11:26;42.07;;;33.50;;
6007;SDS011;3032;49.484;11.112;2022-08-19T02:13:56;42.45;;;36.65;;
6007;SDS011;3032;49.484;11.112;2022-08-19T02:16:22;43.33;;;35.38;;
6007;SDS011;3032;49.484;11.112;2022-08-19T02:18:48;37.25;;;32.25;;
6007;SDS011;3032;49.484;11.112;2022-08-19T02:21:15;43.60;;;36.22;;
6007;SDS011;3032;49.484;11.112;2022-08-19T02:23:42;46.95;;;37.53;;
6007;SDS011;3032;49.484;11.112;2022-08-19T02:26:08;44.65;;;37.60;;
6007;SDS011;3032;49.484;11.112;2022-08-19T02:28:35;44.95;;;36.20;;
6007;SDS011;3032;49.484;11.112;2022-08-19T02:31:01;46.92;;;38.28;;
6007;SDS011;3032;49.484;11.112;2022-08-19T02:33:27;51.92;;;41.05;;
6007;SDS011;3032;49.484;11.112;2022-08-19T02:35:54;40.50;;;35.60;;
6007;SDS011;3032;49.484;11.112;2022-08-19T02:38:19;44.40;;;35.60;;
6007;SDS011;3032;49.484;11.112;2022-08-19T02:40:51;47.05;;;39.42;;
6007;SDS011;3032;49.484;11.112;2022-08-19T02:43:20;44.85;;;37.65;;
6007;SDS011;3032;49.484;11.112;2022-08-19T02:45:46;43.78;;;36.63;;
6007;SDS011;3032;49.484;11.112;2022-08-19T02:48:13;46.03;;;37.10;;
6007;SDS011;3032;49.484;11.112;2022-08-19T02:50:43;69.65;;;45.75;;
6007;SDS011;3032;49.484;11.112;2022-08-19T02:53:10;50.67;;;41.15;;
6007;SDS011;3032;49.484;11.112;2022-08-19T02:55:41;55.50;;;42.00;;
6007;SDS011;3032;49.484;11.112;2022-08-19T02:58:08;53.00;;;41.17;;
6007;SDS011;3032;49.484;11.112;2022-08-19T03:00:34;53.47;;;41.30;;
6007;SDS011;3032;49.484;11.112;2022-08-19T03:02:59;41.07;;;36.57;;
6007;SDS011;3032;49.484;11.112;2022-08-19T03:05:25;45.10;;;37.50;;
6007;SDS011;3032;49.484;11.112;2022-08-19T03:07:52;39.85;;;33.95;;
6007;SDS011;3032;49.484;11.112;2022-08-19T03:10:17;48.00;;;37.70;;
6007;SDS011;3032;49.484;11.112;2022-08-19T03:12:43;54.00;;;41.40;;
6007;SDS011;3032;49.484;11.112;2022-08-19T03:15:11;47.92;;;37.70;;
6007;SDS011;3032;49.484;11.112;2022-08-19T03:17:36;45.30;;;38.00;;
6007;SDS011;3032;49.484;11.112;2022-08-19T03:20:02;44.87;;;38.23;;
6007;SDS011;3032;49.484;11.112;2022-08-19T03:22:29;49.10;;;38.65;;
6007;SDS011;3032;49.484;11.112;2022-08-19T03:24:54;45.00;;;37.10;;
6007;SDS011;3032;49.484;11.112;2022-08-19T03:27:20;42.23;;;35.47;;
6007;SDS011;3032;49.484;11.112;2022-08-19T03:29:46;48.70;;;39.40;;
6007;SDS011;3032;49.484;11.112;2022-08-19T03:32:12;48.92;;;38.53;;
6007;SDS011;3032;49.484;11.112;2022-08-19T03:34:38;46.70;;;38.33;;
6007;SDS011;3032;49.484;11.112;2022-08-19T03:37:05;44.90;;;37.00;;
6007;SDS011;3032;49.484;11.112;2022-08-19T03:39:32;40.65;;;35.22;;
6007;SDS011;3032;49.484;11.112;2022-08-19T03:41:58;43.50;;;36.58;;
6007;SDS011;3032;49.484;11.112;2022-08-19T03:44:27;47.42;;;38.28;;
6007;SDS011;3032;49.484;11.112;2022-08-19T03:46:55;44.08;;;36.25;;
6007;SDS011;3032;49.484;11.112;2022-08-19T03:49:23;40.55;;;33.72;;
6007;SDS011;3032;49.484;11.112;2022-08-19T03:51:51;53.13;;;39.63;;
6007;SDS011;3032;49.484;11.112;2022-08-19T03:54:19;47.10;;;38.60;;
6007;SDS011;3032;49.484;11.112;2022-08-19T03:56:46;46.13;;;36.95;;
6007;SDS011;3032;49.484;11.112;2022-08-19T03:59:16;45.25;;;37.22;;
6007;SDS011;3032;49.484;11.112;2022-08-19T04:01:44;48.75;;;38.97;;
6007;SDS011;3032;49.484;11.112;2022-08-19T04:04:10;43.27;;;34.90;;
6007;SDS011;3032;49.484;11.112;2022-08-19T04:06:37;46.47;;;38.88;;
6007;SDS011;3032;49.484;11.112;2022-08-19T04:09:04;47.47;;;37.08;;
6007;SDS011;3032;49.484;11.112;2022-08-19T04:11:33;47.20;;;37.92;;
6007;SDS011;3032;49.484;11.112;2022-08-19T04:14:01;44.88;;;36.58;;
6007;SDS011;3032;49.484;11.112;2022-08-19T04:16:27;46.47;;;37.00;;
6007;SDS011;3032;49.484;11.112;2022-08-19T04:18:53;45.00;;;36.42;;
6007;SDS011;3032;49.484;11.112;2022-08-19T04:21:21;37.58;;;32.85;;
6007;SDS011;3032;49.484;11.112;2022-08-19T04:23:49;43.33;;;34.83;;
6007;SDS011;3032;49.484;11.112;2022-08-19T04:26:20;42.27;;;36.10;;
6007;SDS011;3032;49.484;11.112;2022-08-19T04:28:48;42.10;;;35.00;;
6007;SDS011;3032;49.484;11.112;2022-08-19T04:31:16;48.75;;;38.50;;
6007;SDS011;3032;49.484;11.112;2022-08-19T04:33:43;49.13;;;39.70;;
6007;SDS011;3032;49.484;11.112;2022-08-19T04:36:16;45.40;;;36.57;;
6007;SDS011;3032;49.484;11.112;2022-08-19T04:38:45;44.65;;;35.78;;
6007;SDS011;3032;49.484;11.112;2022-08-19T04:41:15;42.80;;;35.47;;
6007;SDS011;3032;49.484;11.112;2022-08-19T04:44:00;38.92;;;34.30;;
6007;SDS011;3032;49.484;11.112;2022-08-19T04:46:27;38.60;;;34.15;;
6007;SDS011;3032;49.484;11.112;2022-08-19T04:48:55;41.58;;;33.83;;
6007;SDS011;3032;49.484;11.112;2022-08-19T04:51:21;40.65;;;33.80;;
6007;SDS011;3032;49.484;11.112;2022-08-19T04:53:48;44.53;;;35.05;;
6007;SDS011;3032;49.484;11.112;2022-08-19T04:56:14;50.40;;;40.70;;
6007;SDS011;3032;49.484;11.112;2022-08-19T04:58:42;47.80;;;37.08;;
6007;SDS011;3032;49.484;11.112;2022-08-19T05:01:13;41.58;;;35.22;;
6007;SDS011;3032;49.484;11.112;2022-08-19T05:03:42;43.65;;;35.72;;
6007;SDS011;3032;49.484;11.112;2022-08-19T05:06:08;39.83;;;33.03;;
6007;SDS011;3032;49.484;11.112;2022-08-19T05:08:37;40.55;;;32.85;;
6007;SDS011;3032;49.484;11.112;2022-08-19T05:11:18;45.67;;;36.70;;
6007;SDS011;3032;49.484;11.112;2022-08-19T05:13:46;41.33;;;34.88;;
6007;SDS011;3032;49.484;11.112;2022-08-19T05:16:13;49.03;;;37.63;;
6007;SDS011;3032;49.484;11.112;2022-08-19T05:18:40;38.80;;;33.25;;
6007;SDS011;3032;49.484;11.112;2022-08-19T05:21:26;42.42;;;34.85;;
6007;SDS011;3032;49.484;11.112;2022-08-19T05:24:10;47.85;;;36.40;;
6007;SDS011;3032;49.484;11.112;2022-08-19T05:26:41;38.33;;;32.83;;
6007;SDS011;3032;49.484;11.112;2022-08-19T05:29:10;41.85;;;33.88;;
6007;SDS011;3032;49.484;11.112;2022-08-19T05:31:36;38.27;;;31.93;;
6007;SDS011;3032;49.484;11.112;2022-08-19T05:34:03;40.50;;;33.65;;
6007;SDS011;3032;49.484;11.112;2022-08-19T05:36:33;43.97;;;33.35;;
6007;SDS011;3032;49.484;11.112;2022-08-19T05:39:05;42.88;;;33.15;;
6007;SDS011;3032;49.484;11.112;2022-08-19T05:41:31;38.35;;;32.90;;
6007;SDS011;3032;49.484;11.112;2022-08-19T05:43:58;34.60;;;30.80;;
6007;SDS011;3032;49.484;11.112;2022-08-19T05:46:26;33.80;;;29.33;;
6007;SDS011;3032;49.484;11.112;2022-08-19T05:48:52;41.70;;;34.70;;
6007;SDS011;3032;49.484;11.112;2022-08-19T05:51:21;35.65;;;30.88;;
6007;SDS011;3032;49.484;11.112;2022-08-19T05:53:47;39.80;;;32.70;;
6007;SDS011;3032;49.484;11.112;2022-08-19T05:56:13;36.37;;;32.00;;
6007;SDS011;3032;49.484;11.112;2022-08-19T05:58:45;34.80;;;28.27;;
6007;SDS011;3032;49.484;11.112;2022-08-19T06:01:15;35.23;;;30.83;;
6007;SDS011;3032;49.484;11.112;2022-08-19T06:03:42;28.83;;;25.83;;
6007;SDS011;3032;49.484;11.112;2022-08-19T06:06:09;28.85;;;25.95;;
6007;SDS011;3032;49.484;11.112;2022-08-19T06:08:36;28.55;;;25.48;;
6007;SDS011;3032;49.484;11.112;2022-08-19T06:14:04;24.98;;;22.38;;
6007;SDS011;3032;49.484;11.112;2022-08-19T06:16:34;26.25;;;23.65;;
6007;SDS011;3032;49.484;11.112;2022-08-19T06:19:02;25.58;;;23.08;;
6007;SDS011;3032;49.484;11.112;2022-08-19T06:21:31;28.20;;;25.33;;
6007;SDS011;3032;49.484;11.112;2022-08-19T06:23:57;27.43;;;24.83;;
6007;SDS011;3032;49.484;11.112;2022-08-19T06:26:23;26.87;;;24.20;;
6007;SDS011;3032;49.484;11.112;2022-08-19T06:28:49;24.25;;;21.40;;
6007;SDS011;3032;49.484;11.112;2022-08-19T06:31:16;19.73;;;18.03;;
6007;SDS011;3032;49.484;11.112;2022-08-19T06:33:45;22.05;;;19.88;;
6007;SDS011;3032;49.484;11.112;2022-08-19T06:36:18;22.55;;;20.23;;
6007;SDS011;3032;49.484;11.112;2022-08-19T06:39:06;21.20;;;19.10;;
6007;SDS011;3032;49.484;11.112;2022-08-19T06:41:35;20.15;;;18.27;;
6007;SDS011;3032;49.484;11.112;2022-08-19T06:44:03;20.98;;;18.98;;
6007;SDS011;3032;49.484;11.112;2022-08-19T06:46:29;21.65;;;19.67;;
6007;SDS011;3032;49.484;11.112;2022-08-19T06:48:55;21.92;;;19.65;;
6007;SDS011;3032;49.484;11.112;2022-08-19T06:51:22;22.85;;;20.58;;
6007;SDS011;3032;49.484;11.112;2022-08-19T06:53:49;22.20;;;19.52;;
6007;SDS011;3032;49.484;11.112;2022-08-19T06:56:17;19.58;;;17.70;;
6007;SDS011;3032;49.484;11.112;2022-08-19T06:58:45;20.58;;;18.17;;
6007;SDS011;3032;49.484;11.112;2022-08-19T07:01:12;18.05;;;16.35;;
6007;SDS011;3032;49.484;11.112;2022-08-19T07:03:38;18.35;;;16.52;;
6007;SDS011;3032;49.484;11.112;2022-08-19T07:06:04;18.55;;;16.65;;
6007;SDS011;3032;49.484;11.112;2022-08-19T07:08:37;18.80;;;16.88;;
6007;SDS011;3032;49.484;11.112;2022-08-19T07:11:09;19.92;;;16.35;;
6007;SDS011;3032;49.484;11.112;2022-08-19T07:13:37;16.00;;;14.50;;
6007;SDS011;3032;49.484;11.112;2022-08-19T07:16:07;17.83;;;16.07;;
6007;SDS011;3032;49.484;11.112;2022-08-19T07:18:33;17.67;;;15.85;;
6007;SDS011;3032;49.484;11.112;2022-08-19T07:21:06;16.65;;;14.85;;
6007;SDS011;3032;49.484;11.112;2022-08-19T07:23:36;19.95;;;18.05;;
6007;SDS011;3032;49.484;11.112;2022-08-19T07:26:09;18.43;;;16.53;;
6007;SDS011;3032;49.484;11.112;2022-08-19T07:28:37;19.08;;;17.17;;
6007;SDS011;3032;49.484;11.112;2022-08-19T07:31:04;17.65;;;15.90;;
6007;SDS011;3032;49.484;11.112;2022-08-19T07:33:34;20.42;;;18.63;;
6007;SDS011;3032;49.484;11.112;2022-08-19T07:36:02;21.30;;;19.05;;
6007;SDS011;3032;49.484;11.112;2022-08-19T07:38:29;21.45;;;19.33;;
6007;SDS011;3032;49.484;11.112;2022-08-19T07:40:54;19.40;;;17.40;;
6007;SDS011;3032;49.484;11.112;2022-08-19T07:43:20;20.93;;;18.70;;
6007;SDS011;3032;49.484;11.112;2022-08-19T07:45:49;21.92;;;19.70;;
6007;SDS011;3032;49.484;11.112;2022-08-19T07:48:16;19.58;;;17.58;;
6007;SDS011;3032;49.484;11.112;2022-08-19T07:50:41;19.57;;;17.47;;
6007;SDS011;3032;49.484;11.112;2022-08-19T07:53:07;21.80;;;19.40;;
6007;SDS011;3032;49.484;11.112;2022-08-19T07:55:33;21.80;;;19.60;;
6007;SDS011;3032;49.484;11.112;2022-08-19T07:57:59;20.13;;;17.73;;
6007;SDS011;3032;49.484;11.112;2022-08-19T08:00:24;19.73;;;17.67;;
6007;SDS011;3032;49.484;11.112;2022-08-19T08:02:51;21.23;;;19.05;;
6007;SDS011;3032;49.484;11.112;2022-08-19T08:05:18;22.23;;;19.83;;
6007;SDS011;3032;49.484;11.112;2022-08-19T08:08:02;22.48;;;19.67;;
6007;SDS011;3032;49.484;11.112;2022-08-19T08:10:46;21.15;;;18.90;;
6007;SDS011;3032;49.484;11.112;2022-08-19T08:13:12;23.00;;;20.13;;
6007;SDS011;3032;49.484;11.112;2022-08-19T08:15:38;21.93;;;19.47;;
6007;SDS011;3032;49.484;11.112;2022-08-19T08:18:03;23.17;;;19.02;;
6007;SDS011;3032;49.484;11.112;2022-08-19T08:20:29;25.63;;;20.60;;
6007;SDS011;3032;49.484;11.112;2022-08-19T08:22:55;23.93;;;20.70;;
6007;SDS011;3032;49.484;11.112;2022-08-19T08:25:39;21.02;;;18.92;;
6007;SDS011;3032;49.484;11.112;2022-08-19T08:28:04;20.33;;;18.23;;
6007;SDS011;3032;49.484;11.112;2022-08-19T08:30:32;20.15;;;18.15;;
6007;SDS011;3032;49.484;11.112;2022-08-19T08:32:59;24.90;;;19.23;;
6007;SDS011;3032;49.484;11.112;2022-08-19T08:35:25;20.83;;;18.60;;
6007;SDS011;3032;49.484;11.112;2022-08-19T08:37:51;19.97;;;17.83;;
6007;SDS011;3032;49.484;11.112;2022-08-19T08:40:21;21.67;;;17.13;;
6007;SDS011;3032;49.484;11.112;2022-08-19T08:43:07;21.77;;;17.52;;
6007;SDS011;3032;49.484;11.112;2022-08-19T08:46:29;19.42;;;17.50;;
6007;SDS011;3032;49.484;11.112;2022-08-19T08:48:46;21.45;;;19.20;;
6007;SDS011;3032;49.484;11.112;2022-08-19T08:51:44;20.50;;;17.50;;
6007;SDS011;3032;49.484;11.112;2022-08-19T08:54:18;21.73;;;19.40;;
6007;SDS011;3032;49.484;11.112;2022-08-19T08:56:45;22.60;;;20.25;;
6007;SDS011;3032;49.484;11.112;2022-08-19T08:59:21;22.52;;;20.13;;
6007;SDS011;3032;49.484;11.112;2022-08-19T09:01:56;24.38;;;20.45;;
6007;SDS011;3032;49.484;11.112;2022-08-19T09:04:21;22.03;;;19.40;;
6007;SDS011;3032;49.484;11.112;2022-08-19T09:09:37;28.77;;;23.75;;
6007;SDS011;3032;49.484;11.112;2022-08-19T09:15:04;27.13;;;24.10;;
6007;SDS011;3032;49.484;11.112;2022-08-19T09:17:32;27.05;;;24.25;;
6007;SDS011;3032;49.484;11.112;2022-08-19T09:20:00;28.52;;;24.25;;
6007;SDS011;3032;49.484;11.112;2022-08-19T09:22:32;28.23;;;25.23;;
6007;SDS011;3032;49.484;11.112;2022-08-19T09:24:58;32.97;;;27.55;;
6007;SDS011;3032;49.484;11.112;2022-08-19T09:27:28;29.83;;;24.73;;
6007;SDS011;3032;49.484;11.112;2022-08-19T09:29:54;30.02;;;26.45;;
6007;SDS011;3032;49.484;11.112;2022-08-19T09:32:20;29.20;;;24.73;;
6007;SDS011;3032;49.484;11.112;2022-08-19T09:34:47;29.10;;;26.00;;
6007;SDS011;3032;49.484;11.112;2022-08-19T09:37:13;31.10;;;26.33;;
6007;SDS011;3032;49.484;11.112;2022-08-19T09:39:39;36.00;;;26.90;;
6007;SDS011;3032;49.484;11.112;2022-08-19T09:42:06;28.77;;;24.60;;
6007;SDS011;3032;49.484;11.112;2022-08-19T09:44:36;32.40;;;26.70;;
6007;SDS011;3032;49.484;11.112;2022-08-19T09:47:06;27.30;;;24.17;;
6007;SDS011;3032;49.484;11.112;2022-08-19T09:49:32;27.00;;;23.38;;
6007;SDS011;3032;49.484;11.112;2022-08-19T09:51:58;26.85;;;23.40;;
6007;SDS011;3032;49.484;11.112;2022-08-19T09:54:24;26.30;;;23.33;;
6007;SDS011;3032;49.484;11.112;2022-08-19T09:56:50;26.87;;;23.97;;
6007;SDS011;3032;49.484;11.112;2022-08-19T09:59:15;26.58;;;22.95;;
6007;SDS011;3032;49.484;11.112;2022-08-19T10:01:41;29.10;;;22.97;;
6007;SDS011;3032;49.484;11.112;2022-08-19T10:04:07;27.43;;;24.43;;
6007;SDS011;3032;49.484;11.112;2022-08-19T10:06:36;28.67;;;25.52;;
6007;SDS011;3032;49.484;11.112;2022-08-19T10:09:04;30.65;;;25.70;;
6007;SDS011;3032;49.484;11.112;2022-08-19T10:11:32;31.33;;;24.88;;
6007;SDS011;3032;49.484;11.112;2022-08-19T10:13:59;31.70;;;25.70;;
6007;SDS011;3032;49.484;11.112;2022-08-19T10:16:26;31.58;;;24.55;;
6007;SDS011;3032;49.484;11.112;2022-08-19T10:18:52;25.10;;;22.40;;
6007;SDS011;3032;49.484;11.112;2022-08-19T10:21:22;32.40;;;25.23;;
6007;SDS011;3032;49.484;11.112;2022-08-19T10:23:51;27.80;;;24.75;;
6007;SDS011;3032;49.484;11.112;2022-08-19T10:26:20;25.63;;;22.85;;
6007;SDS011;3032;49.484;11.112;2022-08-19T10:28:51;33.40;;;25.30;;
6007;SDS011;3032;49.484;11.112;2022-08-19T10:31:21;27.40;;;24.40;;
6007;SDS011;3032;49.484;11.112;2022-08-19T10:33:51;28.88;;;23.98;;
6007;SDS011;3032;49.484;11.112;2022-08-19T10:36:23;26.13;;;22.98;;
6007;SDS011;3032;49.484;11.112;2022-08-19T10:38:51;24.20;;;21.02;;
6007;SDS011;3032;49.484;11.112;2022-08-19T10:41:20;29.33;;;22.27;;
6007;SDS011;3032;49.484;11.112;2022-08-19T10:43:50;25.60;;;22.10;;
6007;SDS011;3032;49.484;11.112;2022-08-19T10:46:19;25.63;;;22.92;;
6007;SDS011;3032;49.484;11.112;2022-08-19T10:48:47;28.35;;;23.73;;
6007;SDS011;3032;49.484;11.112;2022-08-19T10:51:12;30.10;;;23.93;;
6007;SDS011;3032;49.484;11.112;2022-08-19T10:53:57;26.15;;;22.52;;
6007;SDS011;3032;49.484;11.112;2022-08-19T10:56:23;26.63;;;22.30;;
6007;SDS011;3032;49.484;11.112;2022-08-19T10:59:07;25.50;;;21.65;;
6007;SDS011;3032;49.484;11.112;2022-08-19T11:01:34;25.65;;;21.58;;
6007;SDS011;3032;49.484;11.112;2022-08-19T11:04:00;23.10;;;20.13;;
6007;SDS011;3032;49.484;11.112;2022-08-19T11:06:28;26.75;;;23.17;;
6007;SDS011;3032;49.484;11.112;2022-08-19T11:08:56;25.83;;;23.05;;
6007;SDS011;3032;49.484;11.112;2022-08-19T11:11:22;24.13;;;21.52;;
6007;SDS011;3032;49.484;11.112;2022-08-19T11:13:48;24.90;;;22.23;;
6007;SDS011;3032;49.484;11.112;2022-08-19T11:16:16;23.65;;;20.50;;
6007;SDS011;3032;49.484;11.112;2022-08-19T11:18:53;23.70;;;21.30;;
6007;SDS011;3032;49.484;11.112;2022-08-19T11:21:33;24.38;;;21.77;;
6007;SDS011;3032;49.484;11.112;2022-08-19T11:24:01;24.05;;;21.63;;
6007;SDS011;3032;49.484;11.112;2022-08-19T11:26:34;24.77;;;20.63;;
6007;SDS011;3032;49.484;11.112;2022-08-19T11:29:02;25.02;;;20.90;;
6007;SDS011;3032;49.484;11.112;2022-08-19T11:31:30;21.58;;;19.35;;
6007;SDS011;3032;49.484;11.112;2022-08-19T11:33:58;23.88;;;21.38;;
6007;SDS011;3032;49.484;11.112;2022-08-19T11:36:26;24.30;;;21.40;;
6007;SDS011;3032;49.484;11.112;2022-08-19T11:38:53;24.83;;;21.83;;
6007;SDS011;3032;49.484;11.112;2022-08-19T11:41:20;23.65;;;21.23;;
6007;SDS011;3032;49.484;11.112;2022-08-19T11:43:48;24.50;;;21.85;;
6007;SDS011;3032;49.484;11.112;2022-08-19T11:46:15;26.83;;;22.75;;
6007;SDS011;3032;49.484;11.112;2022-08-19T11:48:41;25.02;;;22.40;;
6007;SDS011;3032;49.484;11.112;2022-08-19T11:51:09;24.98;;;22.27;;
6007;SDS011;3032;49.484;11.112;2022-08-19T11:53:36;28.58;;;23.45;;
6007;SDS011;3032;49.484;11.112;2022-08-19T11:56:03;24.20;;;21.80;;
6007;SDS011;3032;49.484;11.112;2022-08-19T11:58:30;27.65;;;23.02;;
6007;SDS011;3032;49.484;11.112;2022-08-19T12:00:56;28.48;;;22.92;;
6007;SDS011;3032;49.484;11.112;2022-08-19T12:03:22;26.63;;;22.77;;
6007;SDS011;3032;49.484;11.112;2022-08-19T12:05:48;25.27;;;22.85;;
6007;SDS011;3032;49.484;11.112;2022-08-19T12:08:15;24.90;;;22.30;;
6007;SDS011;3032;49.484;11.112;2022-08-19T12:10:41;25.00;;;22.33;;
6007;SDS011;3032;49.484;11.112;2022-08-19T12:13:07;24.42;;;21.85;;
6007;SDS011;3032;49.484;11.112;2022-08-19T12:15:37;23.25;;;20.90;;
6007;SDS011;3032;49.484;11.112;2022-08-19T12:18:05;26.77;;;21.48;;
6007;SDS011;3032;49.484;11.112;2022-08-19T12:20:34;22.65;;;20.23;;
6007;SDS011;3032;49.484;11.112;2022-08-19T12:23:01;27.52;;;21.80;;
6007;SDS011;3032;49.484;11.112;2022-08-19T12:25:27;24.88;;;22.08;;
6007;SDS011;3032;49.484;11.112;2022-08-19T12:27:53;24.87;;;22.27;;
6007;SDS011;3032;49.484;11.112;2022-08-19T12:30:19;24.52;;;22.02;;
6007;SDS011;3032;49.484;11.112;2022-08-19T12:32:45;24.13;;;21.63;;
6007;SDS011;3032;49.484;11.112;2022-08-19T12:35:10;23.27;;;20.63;;
6007;SDS011;3032;49.484;11.112;2022-08-19T12:37:37;23.80;;;21.20;;
6007;SDS011;3032;49.484;11.112;2022-08-19T12:40:03;23.23;;;20.92;;
6007;SDS011;3032;49.484;11.112;2022-08-19T12:42:30;24.83;;;20.25;;
6007;SDS011;3032;49.484;11.112;2022-08-19T12:44:55;25.07;;;22.50;;
6007;SDS011;3032;49.484;11.112;2022-08-19T12:47:21;26.40;;;22.77;;
6007;SDS011;3032;49.484;11.112;2022-08-19T12:49:47;24.37;;;21.87;;
6007;SDS011;3032;49.484;11.112;2022-08-19T12:52:13;28.17;;;23.38;;
6007;SDS011;3032;49.484;11.112;2022-08-19T12:54:40;27.27;;;24.38;;
6007;SDS011;3032;49.484;11.112;2022-08-19T12:57:08;27.83;;;24.92;;
6007;SDS011;3032;49.484;11.112;2022-08-19T12:59:35;34.97;;;28.15;;
6007;SDS011;3032;49.484;11.112;2022-08-19T13:02:03;31.33;;;27.95;;
6007;SDS011;3032;49.484;11.112;2022-08-19T13:04:31;33.25;;;28.63;;
6007;SDS011;3032;49.484;11.112;2022-08-19T13:06:57;34.53;;;28.35;;
6007;SDS011;3032;49.484;11.112;2022-08-19T13:09:23;34.58;;;29.05;;
6007;SDS011;3032;49.484;11.112;2022-08-19T13:11:49;41.97;;;33.60;;
6007;SDS011;3032;49.484;11.112;2022-08-19T13:14:14;33.93;;;30.33;;
6007;SDS011;3032;49.484;11.112;2022-08-19T13:16:40;33.00;;;27.80;;
6007;SDS011;3032;49.484;11.112;2022-08-19T13:19:06;33.33;;;28.70;;
6007;SDS011;3032;49.484;11.112;2022-08-19T13:21:32;33.20;;;29.38;;
6007;SDS011;3032;49.484;11.112;2022-08-19T13:23:58;41.27;;;33.30;;
6007;SDS011;3032;49.484;11.112;2022-08-19T13:26:23;32.60;;;28.57;;
6007;SDS011;3032;49.484;11.112;2022-08-19T13:28:49;44.27;;;31.20;;
6007;SDS011;3032;49.484;11.112;2022-08-19T13:31:35;45.25;;;35.17;;
6007;SDS011;3032;49.484;11.112;2022-08-19T13:34:32;33.50;;;29.88;;
6007;SDS011;3032;49.484;11.112;2022-08-19T13:37:00;41.00;;;34.08;;
6007;SDS011;3032;49.484;11.112;2022-08-19T13:39:28;38.53;;;31.83;;
6007;SDS011;3032;49.484;11.112;2022-08-19T13:41:54;30.02;;;26.80;;
6007;SDS011;3032;49.484;11.112;2022-08-19T13:44:20;45.10;;;34.95;;
6007;SDS011;3032;49.484;11.112;2022-08-19T13:46:46;32.60;;;27.00;;
6007;SDS011;3032;49.484;11.112;2022-08-19T13:49:13;31.38;;;27.58;;
6007;SDS011;3032;49.484;11.112;2022-08-19T13:51:40;36.95;;;29.08;;
6007;SDS011;3032;49.484;11.112;2022-08-19T13:54:07;34.38;;;29.27;;
6007;SDS011;3032;49.484;11.112;2022-08-19T13:56:34;36.33;;;28.88;;
6007;SDS011;3032;49.484;11.112;2022-08-19T13:59:00;34.33;;;26.63;;
6007;SDS011;3032;49.484;11.112;2022-08-19T14:01:26;32.20;;;27.77;;
6007;SDS011;3032;49.484;11.112;2022-08-19T14:03:52;40.90;;;31.87;;
6007;SDS011;3032;49.484;11.112;2022-08-19T14:06:18;33.33;;;27.90;;
6007;SDS011;3032;49.484;11.112;2022-08-19T14:08:45;34.45;;;26.38;;
6007;SDS011;3032;49.484;11.112;2022-08-19T14:11:10;40.65;;;31.27;;
6007;SDS011;3032;49.484;11.112;2022-08-19T14:13:36;24.43;;;22.00;;
6007;SDS011;3032;49.484;11.112;2022-08-19T14:16:06;28.53;;;23.57;;
6007;SDS011;3032;49.484;11.112;2022-08-19T14:18:33;26.60;;;20.58;;
6007;SDS011;3032;49.484;11.112;2022-08-19T14:20:59;19.73;;;17.63;;
6007;SDS011;3032;49.484;11.112;2022-08-19T14:23:25;20.17;;;18.13;;
6007;SDS011;3032;49.484;11.112;2022-08-19T14:25:50;23.83;;;17.57;;
6007;SDS011;3032;49.484;11.112;2022-08-19T14:28:16;26.47;;;19.93;;
6007;SDS011;3032;49.484;11.112;2022-08-19T14:30:41;23.80;;;20.13;;
6007;SDS011;3032;49.484;11.112;2022-08-19T14:33:09;15.93;;;14.25;;
6007;SDS011;3032;49.484;11.112;2022-08-19T14:35:35;20.00;;;16.47;;
6007;SDS011;3032;49.484;11.112;2022-08-19T14:38:02;19.15;;;16.40;;
6007;SDS011;3032;49.484;11.112;2022-08-19T14:40:30;18.10;;;16.27;;
6007;SDS011;3032;49.484;11.112;2022-08-19T14:42:57;20.85;;;17.20;;
6007;SDS011;3032;49.484;11.112;2022-08-19T14:45:29;19.13;;;17.23;;
6007;SDS011;3032;49.484;11.112;2022-08-19T14:47:56;20.33;;;17.50;;
6007;SDS011;3032;49.484;11.112;2022-08-19T14:50:24;27.23;;;22.13;;
6007;SDS011;3032;49.484;11.112;2022-08-19T14:52:56;26.27;;;19.73;;